Time;durP1;ratioP1;P1;durP2;ratioP2;P2;SDS_P1;SDS_P2;PMS_P1;PMS_P2;Temp;Humidity;BMP_temperature;BMP_pressure;BME280_temperature;BME280_humidity;BME280_pressure;Samples;Min_cycle;Max_cycle;Signal;HPM_P1;HPM_P2
2023/06/12 00:00:54;;;;;;;10.77;5.97;;;15.50;26.30;;;;;;5034033;28;46469;-83
2023/06/12 00:03:23;;;;;;;11.53;6.97;;;15.40;26.50;;;;;;5046404;28;48541;-83
2023/06/12 00:05:49;;;;;;;7.80;6.00;;;15.40;26.60;;;;;;5047404;28;46455;-80
2023/06/12 00:08:17;;;;;;;8.70;6.00;;;15.40;26.80;;;;;;5034762;28;46781;-80
2023/06/12 00:10:44;;;;;;;10.73;6.13;;;15.40;26.90;;;;;;5031719;28;46429;-82
2023/06/12 00:13:11;;;;;;;9.70;5.90;;;15.40;27.20;;;;;;5034536;28;46929;-81
2023/06/12 00:15:36;;;;;;;11.20;6.40;;;15.40;27.20;;;;;;5029817;28;46478;-81
2023/06/12 00:18:03;;;;;;;11.87;6.77;;;15.40;27.40;;;;;;5052055;28;46340;-81
2023/06/12 00:20:29;;;;;;;8.57;5.80;;;15.40;27.50;;;;;;5039317;28;46519;-80
2023/06/12 00:22:56;;;;;;;12.50;6.83;;;15.40;27.90;;;;;;5052226;28;48884;-84
2023/06/12 00:25:22;;;;;;;10.07;6.47;;;15.30;28.00;;;;;;5037157;28;46451;-82
2023/06/12 00:27:47;;;;;;;8.30;5.70;;;15.30;28.30;;;;;;5055444;28;45968;-82
2023/06/12 00:30:13;;;;;;;8.07;6.03;;;15.30;28.50;;;;;;5038895;28;46432;-81
2023/06/12 00:32:39;;;;;;;14.33;5.87;;;15.30;28.70;;;;;;5038716;28;47481;-83
2023/06/12 00:35:05;;;;;;;14.83;6.50;;;15.30;28.70;;;;;;5037104;28;46495;-86
2023/06/12 00:37:32;;;;;;;8.83;6.40;;;15.30;29.00;;;;;;5039016;28;45978;-81
2023/06/12 00:39:57;;;;;;;9.00;6.47;;;15.30;29.10;;;;;;5037781;28;46637;-80
2023/06/12 00:42:29;;;;;;;8.63;5.93;;;15.30;29.50;;;;;;5039614;28;46376;-84
2023/06/12 00:44:55;;;;;;;14.30;6.63;;;15.30;29.80;;;;;;5038789;28;46378;-84
2023/06/12 00:47:22;;;;;;;9.90;6.70;;;15.20;29.80;;;;;;5040481;28;46409;-81
2023/06/12 00:49:48;;;;;;;12.80;6.20;;;15.20;29.80;;;;;;5052464;28;46585;-81
2023/06/12 00:52:15;;;;;;;10.53;6.80;;;15.20;29.80;;;;;;5036217;28;46630;-84
2023/06/12 00:54:44;;;;;;;9.67;6.50;;;15.20;29.80;;;;;;5039275;28;45819;-84
2023/06/12 00:57:11;;;;;;;10.17;5.50;;;15.20;30.30;;;;;;5039226;28;46384;-84
2023/06/12 00:59:37;;;;;;;11.03;7.03;;;15.20;30.50;;;;;;5039669;28;46706;-83
2023/06/12 01:02:03;;;;;;;8.03;5.73;;;15.10;31.10;;;;;;5040344;28;48102;-82
2023/06/12 01:04:30;;;;;;;11.30;6.50;;;15.10;30.80;;;;;;5036378;28;46764;-81
2023/06/12 01:07:10;;;;;;;11.03;7.50;;;15.10;31.00;;;;;;5034324;28;46321;-80
2023/06/12 01:10:15;;;;;;;10.10;7.60;;;15.10;31.40;;;;;;5034427;28;46372;-81
2023/06/12 01:12:43;;;;;;;9.07;6.30;;;15.10;31.90;;;;;;5040858;28;47476;-85
2023/06/12 01:15:09;;;;;;;14.70;7.43;;;15.10;32.00;;;;;;5040548;28;46606;-83
2023/06/12 01:17:35;;;;;;;10.50;7.03;;;15.10;31.90;;;;;;5059353;28;46418;-84
2023/06/12 01:20:11;;;;;;;8.63;7.10;;;15.10;32.10;;;;;;5039924;28;46408;-80
2023/06/12 01:22:52;;;;;;;9.03;7.00;;;15.10;32.30;;;;;;5036017;28;47009;-81
2023/06/12 01:26:06;;;;;;;10.40;7.00;;;15.00;32.30;;;;;;5039623;28;46312;-81
2023/06/12 01:29:07;;;;;;;10.47;7.50;;;15.00;32.80;;;;;;5035549;28;46443;-82
2023/06/12 01:31:43;;;;;;;10.83;7.80;;;15.00;32.60;;;;;;5024926;28;46334;-83
2023/06/12 01:34:21;;;;;;;11.53;7.87;;;15.00;32.40;;;;;;5031932;28;46427;-82
2023/06/12 01:36:57;;;;;;;11.30;7.50;;;15.00;32.70;;;;;;5048963;28;46954;-82
2023/06/12 01:39:26;;;;;;;12.90;7.37;;;14.90;32.60;;;;;;5036440;28;46457;-83
2023/06/12 01:41:53;;;;;;;11.17;8.43;;;14.90;32.70;;;;;;5035718;28;46426;-81
2023/06/12 01:44:20;;;;;;;12.20;7.43;;;14.80;32.80;;;;;;5050075;28;48189;-83
2023/06/12 01:46:46;;;;;;;10.53;7.40;;;14.80;32.90;;;;;;5037508;28;46407;-82
2023/06/12 01:49:11;;;;;;;10.73;7.63;;;14.80;33.20;;;;;;5052877;28;46770;-82
2023/06/12 01:51:37;;;;;;;10.70;7.83;;;14.80;33.30;;;;;;5038700;28;46322;-79
2023/06/12 01:54:03;;;;;;;12.37;8.93;;;14.70;33.50;;;;;;5035037;28;47732;-86
2023/06/12 01:56:28;;;;;;;11.30;8.00;;;14.70;33.90;;;;;;5035740;28;46431;-82
2023/06/12 01:58:54;;;;;;;10.73;8.13;;;14.70;34.30;;;;;;5034432;28;46419;-82
2023/06/12 02:01:20;;;;;;;10.80;8.10;;;14.60;34.40;;;;;;5035160;28;46391;-84
2023/06/12 02:03:47;;;;;;;12.03;8.03;;;14.60;34.70;;;;;;5052167;28;49123;-82
2023/06/12 02:06:15;;;;;;;12.93;8.97;;;14.60;34.90;;;;;;5032603;28;46359;-82
2023/06/12 02:08:41;;;;;;;16.07;7.93;;;14.60;35.50;;;;;;5037368;28;45868;-82
2023/06/12 02:11:06;;;;;;;11.03;8.57;;;14.60;35.80;;;;;;5049399;28;46682;-82
2023/06/12 02:13:32;;;;;;;15.33;8.53;;;14.50;35.80;;;;;;5036582;28;46426;-83
2023/06/12 02:15:58;;;;;;;14.10;8.70;;;14.60;36.50;;;;;;5039715;28;45779;-81
2023/06/12 02:18:23;;;;;;;11.07;8.30;;;14.50;36.60;;;;;;5037576;28;46447;-83
2023/06/12 02:20:49;;;;;;;11.77;8.10;;;14.50;36.70;;;;;;5036290;28;46379;-84
2023/06/12 02:23:15;;;;;;;11.77;8.40;;;14.40;36.80;;;;;;5040437;28;47190;-82
2023/06/12 02:25:40;;;;;;;11.77;8.57;;;14.40;37.30;;;;;;5038390;28;46426;-81
2023/06/12 02:28:07;;;;;;;12.57;8.87;;;14.30;37.50;;;;;;5037789;28;46605;-84
2023/06/12 02:30:32;;;;;;;12.13;8.93;;;14.30;37.80;;;;;;5042450;28;46403;-85
2023/06/12 02:32:58;;;;;;;11.67;9.13;;;14.20;37.80;;;;;;5043178;28;47486;-83
2023/06/12 02:35:24;;;;;;;14.33;9.10;;;14.20;37.90;;;;;;5045883;28;46412;-84
2023/06/12 02:37:50;;;;;;;11.13;8.60;;;14.20;38.00;;;;;;5048068;28;46451;-86
2023/06/12 02:40:15;;;;;;;10.93;8.53;;;14.20;38.00;;;;;;5047508;28;45851;-84
2023/06/12 02:42:41;;;;;;;14.43;9.13;;;14.20;38.20;;;;;;5054828;28;48201;-83
2023/06/12 02:45:07;;;;;;;13.67;9.53;;;14.10;38.30;;;;;;5030115;28;46911;-82
2023/06/12 02:47:33;;;;;;;10.73;7.97;;;14.10;38.40;;;;;;5049042;28;46494;-84
2023/06/12 02:49:58;;;;;;;11.83;8.20;;;14.10;38.70;;;;;;5049252;28;46459;-84
2023/06/12 02:52:24;;;;;;;15.90;9.37;;;14.10;38.90;;;;;;5034831;28;46315;-82
2023/06/12 02:54:50;;;;;;;12.57;9.23;;;14.10;39.00;;;;;;5038263;28;46401;-80
2023/06/12 02:57:15;;;;;;;14.50;11.03;;;14.10;39.20;;;;;;5035104;28;46448;-82
2023/06/12 02:59:41;;;;;;;12.70;8.73;;;14.10;39.40;;;;;;5036829;28;46455;-82
2023/06/12 03:02:07;;;;;;;12.80;9.13;;;14.10;39.40;;;;;;5035585;28;47067;-83
2023/06/12 03:04:32;;;;;;;18.30;9.37;;;14.10;39.40;;;;;;5033307;28;46376;-82
2023/06/12 03:06:58;;;;;;;14.43;9.37;;;14.10;39.10;;;;;;5037782;28;46769;-79
2023/06/12 03:09:24;;;;;;;12.83;9.10;;;14.10;39.00;;;;;;5035165;28;46515;-80
2023/06/12 03:11:52;;;;;;;13.73;9.30;;;14.10;39.00;;;;;;5036331;28;46310;-80
2023/06/12 03:14:21;;;;;;;14.07;10.10;;;14.10;39.00;;;;;;5051230;28;45891;-80
2023/06/12 03:16:48;;;;;;;12.50;9.80;;;14.10;39.10;;;;;;5033585;28;46390;-81
2023/06/12 03:19:14;;;;;;;14.57;10.23;;;14.00;39.40;;;;;;5045373;28;46379;-80
2023/06/12 03:21:39;;;;;;;17.13;10.53;;;14.00;39.70;;;;;;5035032;28;46226;-79
2023/06/12 03:24:05;;;;;;;13.50;9.47;;;14.00;39.80;;;;;;5031734;28;47013;-80
2023/06/12 03:26:33;;;;;;;13.77;9.97;;;14.00;40.20;;;;;;5040333;28;46481;-80
2023/06/12 03:29:03;;;;;;;18.63;10.90;;;14.00;40.30;;;;;;5050973;28;46383;-79
2023/06/12 03:31:29;;;;;;;14.37;10.10;;;13.90;40.50;;;;;;5028583;28;46284;-80
2023/06/12 03:33:55;;;;;;;12.87;9.83;;;13.90;40.90;;;;;;5029386;28;46224;-80
2023/06/12 03:36:23;;;;;;;12.47;9.33;;;13.90;41.30;;;;;;5035765;28;46478;-80
2023/06/12 03:38:49;;;;;;;12.30;9.93;;;13.90;41.60;;;;;;5036411;28;46378;-80
2023/06/12 03:41:15;;;;;;;14.40;9.40;;;14.00;42.00;;;;;;5031916;28;46797;-79
2023/06/12 03:43:41;;;;;;;13.13;9.77;;;14.00;41.80;;;;;;5033839;28;46454;-79
2023/06/12 03:46:06;;;;;;;14.20;10.07;;;14.00;43.30;;;;;;5049535;28;46350;-78
2023/06/12 03:48:32;;;;;;;13.70;9.30;;;14.10;42.20;;;;;;5031143;28;46526;-79
2023/06/12 03:50:57;;;;;;;14.10;10.50;;;14.10;42.10;;;;;;5035140;28;46303;-78
2023/06/12 03:53:23;;;;;;;15.30;10.00;;;14.10;42.30;;;;;;5036777;28;46829;-79
2023/06/12 03:55:49;;;;;;;11.93;8.73;;;14.10;42.20;;;;;;5039474;28;46339;-80
2023/06/12 03:58:16;;;;;;;13.67;9.83;;;14.10;42.20;;;;;;5039283;28;46418;-80
2023/06/12 04:00:45;;;;;;;13.73;10.17;;;14.20;42.30;;;;;;5033754;28;46744;-80
2023/06/12 04:03:14;;;;;;;11.13;8.80;;;14.30;42.20;;;;;;5035670;28;46371;-79
2023/06/12 04:05:39;;;;;;;12.63;8.87;;;14.30;42.00;;;;;;5036397;28;46300;-79
2023/06/12 04:08:05;;;;;;;13.50;9.03;;;14.40;41.90;;;;;;5041806;28;45942;-81
2023/06/12 04:10:33;;;;;;;13.37;9.17;;;14.40;41.40;;;;;;5036106;28;46370;-80
2023/06/12 04:12:58;;;;;;;16.80;9.83;;;14.50;41.30;;;;;;5035207;28;46375;-79
2023/06/12 04:15:24;;;;;;;12.77;9.80;;;14.50;41.10;;;;;;5055368;28;46980;-79
2023/06/12 04:17:50;;;;;;;22.90;10.10;;;14.60;41.10;;;;;;5038627;28;45857;-81
2023/06/12 04:20:15;;;;;;;11.63;8.93;;;14.70;40.90;;;;;;5036638;28;46333;-80
2023/06/12 04:22:41;;;;;;;11.93;8.57;;;14.80;40.80;;;;;;5042310;28;46446;-79
2023/06/12 04:25:08;;;;;;;11.50;8.70;;;14.90;40.50;;;;;;5060481;28;46173;-81
2023/06/12 04:27:35;;;;;;;12.03;8.00;;;15.00;40.20;;;;;;5038066;28;46366;-80
2023/06/12 04:30:00;;;;;;;18.67;9.30;;;15.10;40.10;;;;;;5049686;28;48462;-81
2023/06/12 04:32:29;;;;;;;13.33;9.33;;;15.20;40.00;;;;;;5038453;28;46294;-79
2023/06/12 04:34:55;;;;;;;17.90;10.17;;;15.30;40.00;;;;;;5051926;28;46471;-82
2023/06/12 04:37:21;;;;;;;11.80;8.87;;;15.30;41.40;;;;;;5036227;28;46549;-77
2023/06/12 04:39:47;;;;;;;14.03;9.30;;;15.40;40.00;;;;;;5039353;28;47112;-81
2023/06/12 04:42:16;;;;;;;14.40;8.63;;;15.60;39.50;;;;;;5036777;28;46514;-80
2023/06/12 04:44:43;;;;;;;15.40;8.37;;;16.70;38.10;;;;;;5038397;28;46503;-81
2023/06/12 04:47:10;;;;;;;10.23;7.43;;;18.40;35.30;;;;;;5037501;28;46442;-80
2023/06/12 04:49:40;;;;;;;10.30;7.77;;;19.80;31.70;;;;;;5045692;28;47362;-82
2023/06/12 04:52:07;;;;;;;11.00;6.80;;;21.00;28.80;;;;;;5036219;28;46211;-82
2023/06/12 04:54:38;;;;;;;12.43;7.07;;;21.80;27.30;;;;;;5039209;28;47471;-79
2023/06/12 04:57:11;;;;;;;9.83;7.00;;;22.70;24.30;;;;;;5037951;28;46409;-79
2023/06/12 04:59:38;;;;;;;11.60;7.20;;;23.40;24.00;;;;;;5034490;28;49259;-79
2023/06/12 05:02:06;;;;;;;17.47;6.40;;;23.80;22.30;;;;;;5035312;28;45725;-79
2023/06/12 05:04:32;;;;;;;8.33;6.77;;;24.10;21.20;;;;;;5033529;28;46468;-82
2023/06/12 05:07:03;;;;;;;13.43;6.37;;;24.50;19.90;;;;;;5037432;28;46703;-80
2023/06/12 05:09:29;;;;;;;8.33;6.30;;;24.80;19.00;;;;;;5041907;28;47438;-82
2023/06/12 05:11:55;;;;;;;9.47;6.67;;;25.30;17.70;;;;;;5038580;28;46329;-80
2023/06/12 05:14:20;;;;;;;7.07;5.47;;;25.60;16.30;;;;;;5040649;28;46414;-79
2023/06/12 05:16:46;;;;;;;8.50;6.70;;;26.10;14.20;;;;;;5033711;28;46417;-78
2023/06/12 05:19:13;;;;;;;8.57;6.50;;;26.50;13.30;;;;;;5024227;28;47495;-81
2023/06/12 05:21:41;;;;;;;8.13;6.40;;;26.70;11.10;;;;;;5039029;28;46682;-81
2023/06/12 05:24:07;;;;;;;8.60;6.40;;;27.00;10.30;;;;;;5034387;28;46472;-82
2023/06/12 05:26:33;;;;;;;11.53;7.30;;;27.40;9.20;;;;;;5036867;28;46415;-81
2023/06/12 05:28:59;;;;;;;7.63;5.90;;;27.40;8.70;;;;;;5036945;28;46430;-79
2023/06/12 05:31:25;;;;;;;9.40;5.67;;;27.30;8.80;;;;;;5037367;28;46413;-83
2023/06/12 05:33:51;;;;;;;7.90;6.00;;;27.40;8.20;;;;;;5039663;28;46369;-80
2023/06/12 05:36:16;;;;;;;15.33;6.23;;;27.70;7.50;;;;;;5047014;28;46280;-80
2023/06/12 05:38:46;;;;;;;8.13;5.90;;;27.50;7.40;;;;;;5036124;28;46120;-81
2023/06/12 05:41:15;;;;;;;8.40;5.93;;;27.60;8.30;;;;;;5035250;28;46369;-80
2023/06/12 05:43:44;;;;;;;9.23;6.23;;;27.70;7.00;;;;;;5026644;28;46845;-83
2023/06/12 05:46:10;;;;;;;15.07;6.87;;;27.30;6.50;;;;;;5035463;28;46290;-81
2023/06/12 05:48:36;;;;;;;10.70;6.33;;;27.80;6.20;;;;;;5038436;28;47634;-82
2023/06/12 05:51:03;;;;;;;8.40;6.60;;;28.00;5.10;;;;;;5030638;28;46486;-82
2023/06/12 05:53:30;;;;;;;9.10;6.40;;;27.60;6.40;;;;;;5038257;28;46451;-80
2023/06/12 05:55:56;;;;;;;9.30;5.60;;;26.00;10.00;;;;;;5039576;28;46389;-80
2023/06/12 05:58:21;;;;;;;8.77;6.83;;;24.80;12.50;;;;;;5036525;28;46327;-81
2023/06/12 06:00:49;;;;;;;10.80;6.90;;;23.70;14.10;;;;;;5034687;28;46506;-80
2023/06/12 06:03:16;;;;;;;8.90;6.80;;;22.40;17.00;;;;;;5033333;28;46569;-82
2023/06/12 06:05:42;;;;;;;16.73;7.73;;;21.80;18.40;;;;;;5037890;28;46514;-81
2023/06/12 06:08:07;;;;;;;10.00;6.93;;;21.30;19.10;;;;;;5033199;28;47199;-81
2023/06/12 06:10:33;;;;;;;17.77;7.73;;;21.20;19.40;;;;;;5037028;28;46430;-81
2023/06/12 06:12:59;;;;;;;10.80;8.00;;;21.10;19.40;;;;;;5050435;28;46273;-79
2023/06/12 06:15:24;;;;;;;11.73;8.70;;;20.90;19.60;;;;;;5041669;28;46512;-81
2023/06/12 06:17:50;;;;;;;16.57;8.77;;;20.80;20.00;;;;;;5038964;28;46523;-84
2023/06/12 06:20:17;;;;;;;11.07;7.33;;;20.70;19.80;;;;;;5035538;28;45818;-80
2023/06/12 06:22:43;;;;;;;15.40;8.43;;;20.70;20.10;;;;;;5034337;28;46407;-82
2023/06/12 06:25:09;;;;;;;11.00;7.93;;;20.70;20.00;;;;;;5037011;28;46631;-82
2023/06/12 06:27:35;;;;;;;12.87;7.67;;;20.70;20.20;;;;;;5035458;28;46442;-81
2023/06/12 06:30:16;;;;;;;10.07;8.20;;;20.80;20.10;;;;;;5037845;28;46323;-81
2023/06/12 06:32:42;;;;;;;14.37;7.30;;;20.70;21.00;;;;;;5031525;28;46955;-84
2023/06/12 06:35:08;;;;;;;12.73;7.97;;;20.70;20.10;;;;;;5040380;28;46661;-83
2023/06/12 06:37:35;;;;;;;11.20;7.57;;;20.60;20.00;;;;;;5032701;28;48470;-85
2023/06/12 06:40:01;;;;;;;12.20;7.23;;;20.60;20.10;;;;;;5037865;28;46395;-78
2023/06/12 06:42:29;;;;;;;10.47;7.43;;;20.70;20.40;;;;;;5032392;28;46550;-79
2023/06/12 06:44:55;;;;;;;15.17;8.20;;;20.70;20.50;;;;;;5033740;28;46514;-81
2023/06/12 06:47:20;;;;;;;15.57;6.90;;;20.70;20.40;;;;;;5033165;28;46439;-79
2023/06/12 06:49:46;;;;;;;12.03;8.43;;;20.80;20.50;;;;;;5027958;28;46974;-81
2023/06/12 06:52:12;;;;;;;12.90;7.07;;;20.70;21.40;;;;;;5032635;28;46516;-80
2023/06/12 06:54:38;;;;;;;10.00;6.80;;;20.60;20.60;;;;;;5033660;28;46553;-80
2023/06/12 06:57:03;;;;;;;12.73;7.10;;;20.80;20.30;;;;;;5049770;28;47213;-81
2023/06/12 06:59:29;;;;;;;11.60;8.00;;;20.90;20.10;;;;;;5031478;28;46396;-81
2023/06/12 07:01:55;;;;;;;10.70;7.73;;;20.90;19.80;;;;;;5036326;28;46668;-82
2023/06/12 07:04:20;;;;;;;11.23;7.57;;;20.90;19.70;;;;;;5036572;28;46676;-81
2023/06/12 07:06:46;;;;;;;14.50;6.60;;;20.80;19.60;;;;;;5031162;28;47109;-80
2023/06/12 07:09:14;;;;;;;11.80;7.47;;;20.90;19.40;;;;;;5035166;28;46418;-82
2023/06/12 07:11:39;;;;;;;17.03;7.47;;;21.00;19.10;;;;;;5035062;28;46422;-79
2023/06/12 07:14:05;;;;;;;9.87;7.40;;;21.10;19.00;;;;;;5051604;28;46401;-80
2023/06/12 07:16:31;;;;;;;12.20;7.40;;;21.10;18.80;;;;;;5034070;28;47262;-80
2023/06/12 07:18:57;;;;;;;16.43;7.40;;;21.10;18.70;;;;;;5041499;28;45840;-81
2023/06/12 07:21:22;;;;;;;10.13;6.20;;;21.00;18.70;;;;;;5034806;28;46399;-80
2023/06/12 07:23:51;;;;;;;15.43;7.53;;;21.10;18.70;;;;;;5036604;28;46416;-82
2023/06/12 07:26:16;;;;;;;12.53;6.80;;;21.10;18.40;;;;;;5037278;28;47240;-83
2023/06/12 07:28:42;;;;;;;12.87;6.57;;;21.10;18.30;;;;;;5034335;28;45804;-84
2023/06/12 07:31:07;;;;;;;10.53;6.47;;;21.40;17.90;;;;;;5036450;28;46504;-80
2023/06/12 07:33:33;;;;;;;10.07;5.73;;;21.50;17.50;;;;;;5032072;28;46505;-81
2023/06/12 07:35:59;;;;;;;11.80;7.00;;;21.50;17.20;;;;;;5033733;28;47619;-82
2023/06/12 07:38:24;;;;;;;15.00;7.47;;;21.60;17.00;;;;;;5049108;28;46316;-80
2023/06/12 07:40:50;;;;;;;10.23;6.70;;;21.60;17.00;;;;;;5039409;28;46459;-80
2023/06/12 07:43:15;;;;;;;11.43;6.30;;;21.60;17.10;;;;;;5033137;28;46416;-80
2023/06/12 07:45:41;;;;;;;13.87;7.57;;;21.60;17.10;;;;;;5033519;28;46423;-80
2023/06/12 07:48:07;;;;;;;12.13;7.13;;;21.80;16.90;;;;;;5036084;28;46422;-80
2023/06/12 07:50:33;;;;;;;14.77;6.30;;;21.70;16.60;;;;;;5032168;28;46205;-80
2023/06/12 07:52:58;;;;;;;10.83;6.50;;;21.90;16.50;;;;;;5037730;28;46365;-79
2023/06/12 07:55:24;;;;;;;9.43;6.00;;;21.90;15.80;;;;;;5034283;28;46872;-78
2023/06/12 07:57:50;;;;;;;12.90;6.57;;;21.80;15.40;;;;;;5031080;28;46843;-78
2023/06/12 08:00:16;;;;;;;10.50;6.97;;;21.80;15.30;;;;;;5047981;28;46614;-79
2023/06/12 08:02:42;;;;;;;10.73;6.67;;;21.90;15.70;;;;;;5035095;28;46800;-81
2023/06/12 08:05:08;;;;;;;10.07;6.77;;;22.00;15.60;;;;;;5030368;28;46549;-81
2023/06/12 08:07:34;;;;;;;12.40;7.50;;;21.80;15.90;;;;;;5048359;28;46751;-80
2023/06/12 08:10:00;;;;;;;12.50;7.60;;;22.00;15.80;;;;;;5034847;28;46387;-75
2023/06/12 08:12:26;;;;;;;12.87;6.60;;;22.20;15.70;;;;;;5035895;28;46406;-81
2023/06/12 08:14:53;;;;;;;12.00;6.50;;;22.40;15.80;;;;;;5035149;28;46303;-79
2023/06/12 08:17:20;;;;;;;9.60;6.27;;;22.40;15.50;;;;;;5030565;28;47951;-81
2023/06/12 08:19:47;;;;;;;8.50;6.30;;;22.20;15.40;;;;;;5035627;28;46704;-80
2023/06/12 08:22:15;;;;;;;17.57;5.90;;;22.20;14.80;;;;;;5051533;28;46481;-82
2023/06/12 08:24:41;;;;;;;12.23;5.30;;;22.20;14.20;;;;;;5033184;28;46524;-83
2023/06/12 08:27:07;;;;;;;9.30;5.47;;;22.20;13.90;;;;;;5033833;28;46367;-82
2023/06/12 08:29:34;;;;;;;11.03;5.73;;;22.30;13.00;;;;;;5037784;28;46316;-82
2023/06/12 08:32:00;;;;;;;7.17;4.60;;;22.20;13.30;;;;;;5036664;28;46427;-77
2023/06/12 08:34:26;;;;;;;10.10;5.10;;;22.40;13.10;;;;;;5047849;28;49266;-83
2023/06/12 08:36:55;;;;;;;7.63;5.43;;;22.40;13.00;;;;;;5049775;28;46490;-81
2023/06/12 08:39:21;;;;;;;8.53;5.77;;;22.70;12.90;;;;;;5036590;28;46535;-81
2023/06/12 08:41:55;;;;;;;11.60;4.83;;;22.70;12.20;;;;;;5036412;28;46489;-80
2023/06/12 08:44:24;;;;;;;9.53;5.57;;;22.80;12.10;;;;;;5054639;28;47826;-83
2023/06/12 08:46:54;;;;;;;8.40;5.73;;;22.70;11.50;;;;;;5032815;28;46862;-80
2023/06/12 08:49:20;;;;;;;14.97;6.07;;;22.80;11.30;;;;;;5037923;28;46823;-81
2023/06/12 08:51:49;;;;;;;7.57;4.70;;;22.80;11.00;;;;;;5037007;28;46335;-83
2023/06/12 08:54:15;;;;;;;8.90;4.90;;;22.90;10.90;;;;;;5034892;28;46499;-81
2023/06/12 08:56:42;;;;;;;17.17;5.90;;;22.90;10.60;;;;;;5036293;28;46497;-82
2023/06/12 08:59:09;;;;;;;10.07;5.53;;;22.80;10.50;;;;;;5051205;28;46304;-81
2023/06/12 09:01:38;;;;;;;10.07;5.20;;;22.90;10.50;;;;;;5035544;28;46395;-81
2023/06/12 09:04:10;;;;;;;13.60;6.20;;;23.10;10.40;;;;;;5035918;28;46402;-82
2023/06/12 09:06:37;;;;;;;13.50;5.50;;;23.20;9.80;;;;;;5048495;28;46378;-83
2023/06/12 09:09:04;;;;;;;9.33;5.40;;;23.10;9.50;;;;;;5045488;28;46301;-80
2023/06/12 09:11:30;;;;;;;8.40;5.00;;;23.00;10.30;;;;;;5036477;28;46650;-81
2023/06/12 09:14:00;;;;;;;8.37;5.17;;;22.90;10.30;;;;;;5035888;28;46591;-81
2023/06/12 09:16:27;;;;;;;12.17;5.17;;;23.00;10.30;;;;;;5035479;28;46618;-78
2023/06/12 09:18:54;;;;;;;11.33;5.67;;;22.90;10.10;;;;;;5039882;28;46340;-81
2023/06/12 09:21:23;;;;;;;7.30;4.67;;;22.90;10.50;;;;;;5039080;28;46221;-80
2023/06/12 09:23:51;;;;;;;8.97;5.37;;;23.00;10.00;;;;;;5034688;28;47314;-80
2023/06/12 09:26:21;;;;;;;12.00;4.70;;;22.80;10.00;;;;;;5032591;28;46400;-79
2023/06/12 09:28:53;;;;;;;6.33;4.50;;;22.60;10.00;;;;;;5036855;28;46200;-78
2023/06/12 09:31:20;;;;;;;10.27;5.03;;;22.50;10.10;;;;;;5033276;28;46452;-79
2023/06/12 09:33:46;;;;;;;9.63;5.87;;;22.70;9.80;;;;;;5037965;28;47283;-81
2023/06/12 09:36:12;;;;;;;8.13;5.23;;;23.20;9.60;;;;;;5038235;28;45963;-79
2023/06/12 09:38:38;;;;;;;13.20;4.40;;;23.20;9.40;;;;;;5034380;28;46540;-82
2023/06/12 09:41:06;;;;;;;9.23;5.30;;;23.30;9.20;;;;;;5038624;28;46772;-80
2023/06/12 09:43:32;;;;;;;8.20;5.10;;;23.40;9.20;;;;;;5033186;28;46547;-83
2023/06/12 09:46:02;;;;;;;7.63;4.63;;;23.20;8.90;;;;;;5035481;28;46160;-82
2023/06/12 09:48:36;;;;;;;11.00;5.70;;;23.00;9.30;;;;;;5039324;28;46478;-85
2023/06/12 09:51:07;;;;;;;8.23;4.90;;;23.00;9.40;;;;;;5037492;28;46561;-79
2023/06/12 09:53:37;;;;;;;11.80;4.70;;;23.00;9.50;;;;;;5039811;28;46443;-83
2023/06/12 09:56:07;;;;;;;7.43;4.43;;;23.30;9.40;;;;;;5037402;28;46418;-82
2023/06/12 09:58:41;;;;;;;9.23;5.70;;;23.60;9.00;;;;;;5036618;28;46417;-84
2023/06/12 10:01:07;;;;;;;12.87;4.43;;;23.50;8.50;;;;;;5042274;28;45784;-81
2023/06/12 10:03:38;;;;;;;10.63;4.73;;;23.50;8.50;;;;;;5042414;28;46959;-85
2023/06/12 10:06:06;;;;;;;8.87;4.80;;;23.50;7.60;;;;;;5040793;28;46844;-83
2023/06/12 10:08:34;;;;;;;6.33;3.90;;;23.70;7.40;;;;;;5040697;28;46553;-82
2023/06/12 10:11:00;;;;;;;7.43;4.60;;;24.00;6.30;;;;;;5034619;28;47018;-86
2023/06/12 10:13:27;;;;;;;8.10;4.07;;;24.20;5.30;;;;;;5053899;28;46032;-83
2023/06/12 10:15:53;;;;;;;10.93;5.10;;;24.00;5.70;;;;;;5040519;28;45842;-82
2023/06/12 10:18:20;;;;;;;9.03;4.97;;;23.90;6.30;;;;;;5033596;28;46976;-82
2023/06/12 10:20:49;;;;;;;13.50;4.90;;;23.60;6.50;;;;;;5036286;28;46315;-82
2023/06/12 10:23:15;;;;;;;13.20;5.20;;;23.80;6.30;;;;;;5035999;28;47359;-81
2023/06/12 10:25:41;;;;;;;12.40;4.37;;;24.00;6.00;;;;;;5039045;28;46285;-83
2023/06/12 10:28:11;;;;;;;10.67;4.80;;;24.20;5.40;;;;;;5034973;28;46883;-84
2023/06/12 10:30:36;;;;;;;10.67;4.83;;;24.30;4.40;;;;;;5037080;28;46704;-83
2023/06/12 10:33:13;;;;;;;7.33;4.40;;;24.40;4.80;;;;;;5036095;28;46484;-82
2023/06/12 10:35:39;;;;;;;11.63;4.53;;;24.40;5.00;;;;;;5029816;28;46543;-82
2023/06/12 10:38:05;;;;;;;9.30;4.43;;;24.20;5.30;;;;;;5034975;28;46422;-80
2023/06/12 10:40:31;;;;;;;8.37;4.53;;;24.10;5.80;;;;;;5036338;28;46403;-81
2023/06/12 10:43:04;;;;;;;6.23;4.30;;;24.20;5.80;;;;;;5034279;28;46019;-80
2023/06/12 10:45:30;;;;;;;9.80;4.33;;;24.40;5.60;;;;;;5031671;28;46399;-84
2023/06/12 10:48:05;;;;;;;14.33;4.80;;;24.40;5.10;;;;;;5031214;28;45896;-81
2023/06/12 10:50:50;;;;;;;11.33;4.40;;;24.40;4.10;;;;;;5035601;28;46766;-84
2023/06/12 10:53:20;;;;;;;6.90;3.83;;;24.40;3.70;;;;;;5035135;28;46349;-82
2023/06/12 10:55:46;;;;;;;6.60;4.10;;;24.50;3.60;;;;;;5047593;28;46524;-81
2023/06/12 10:58:24;;;;;;;8.37;4.60;;;24.50;3.20;;;;;;5033054;28;47043;-78
2023/06/12 11:00:52;;;;;;;6.80;4.10;;;24.80;3.30;;;;;;5034959;28;46348;-80
2023/06/12 11:03:26;;;;;;;8.50;4.40;;;24.90;3.40;;;;;;5034245;28;46545;-81
2023/06/12 11:05:58;;;;;;;9.53;4.17;;;24.60;3.20;;;;;;5038217;28;47044;-80
2023/06/12 11:08:27;;;;;;;6.90;4.33;;;24.70;3.20;;;;;;5032019;28;46512;-81
2023/06/12 11:10:53;;;;;;;7.33;4.10;;;24.60;3.20;;;;;;5032344;28;46637;-81
2023/06/12 11:13:26;;;;;;;6.50;4.20;;;24.60;3.20;;;;;;5051052;28;48622;-79
2023/06/12 11:15:53;;;;;;;6.60;4.40;;;24.80;3.20;;;;;;5030750;28;46561;-81
2023/06/12 11:18:19;;;;;;;6.30;4.07;;;24.60;2.60;;;;;;5036351;28;46415;-79
2023/06/12 11:20:56;;;;;;;7.13;4.03;;;24.70;2.50;;;;;;5050813;28;46409;-81
2023/06/12 11:23:27;;;;;;;6.63;3.90;;;24.60;3.20;;;;;;5035539;28;46372;-80
2023/06/12 11:25:55;;;;;;;6.13;3.87;;;24.70;2.50;;;;;;5038449;28;46497;-80
2023/06/12 11:28:25;;;;;;;9.20;4.70;;;24.80;2.20;;;;;;5034007;28;45870;-79
2023/06/12 11:30:56;;;;;;;7.93;4.50;;;25.00;1.70;;;;;;5035861;28;46572;-84
2023/06/12 11:33:22;;;;;;;6.10;4.10;;;25.00;1.70;;;;;;5040491;28;48206;-84
2023/06/12 11:35:50;;;;;;;9.20;4.03;;;25.00;1.60;;;;;;5035710;28;46728;-82
2023/06/12 11:38:23;;;;;;;8.00;4.50;;;25.00;1.40;;;;;;5036127;28;46409;-80
2023/06/12 11:40:53;;;;;;;7.83;4.30;;;25.00;1.00;;;;;;5038059;28;46572;-84
2023/06/12 11:43:22;;;;;;;8.33;4.07;;;25.00;1.00;;;;;;5036577;28;46111;-84
2023/06/12 11:45:48;;;;;;;9.33;4.30;;;25.20;1.00;;;;;;5047180;28;46513;-82
2023/06/12 11:48:16;;;;;;;8.17;4.37;;;25.20;1.00;;;;;;5034886;28;46368;-84
2023/06/12 11:50:44;;;;;;;8.67;4.60;;;25.00;1.00;;;;;;5041603;28;46349;-85
2023/06/12 11:53:12;;;;;;;8.13;4.80;;;24.90;1.20;;;;;;5043376;28;47568;-82
2023/06/12 11:55:37;;;;;;;9.20;4.10;;;25.10;1.30;;;;;;5037943;28;46503;-79
2023/06/12 11:58:04;;;;;;;7.97;4.30;;;25.20;1.00;;;;;;5034046;28;46785;-81
2023/06/12 12:00:33;;;;;;;8.40;4.27;;;25.30;1.00;;;;;;5050064;28;46605;-83
2023/06/12 12:03:02;;;;;;;7.83;3.70;;;25.00;1.00;;;;;;5038164;28;47309;-82
2023/06/12 12:05:33;;;;;;;15.53;4.30;;;24.80;1.00;;;;;;5050310;28;48117;-79
2023/06/12 12:08:03;;;;;;;6.80;4.03;;;24.80;1.00;;;;;;5033973;28;46391;-79
2023/06/12 12:10:37;;;;;;;8.30;4.30;;;24.80;1.00;;;;;;5033556;28;46658;-80
2023/06/12 12:13:03;;;;;;;5.53;3.90;;;24.60;1.00;;;;;;5040383;28;47594;-79
2023/06/12 12:15:31;;;;;;;16.73;4.00;;;24.50;1.00;;;;;;5034735;28;46401;-81
2023/06/12 12:17:57;;;;;;;7.10;4.10;;;24.50;1.00;;;;;;5039793;28;46580;-80
2023/06/12 12:20:26;;;;;;;6.10;4.33;;;24.60;1.00;;;;;;5039541;28;46447;-81
2023/06/12 12:22:57;;;;;;;11.33;4.37;;;24.80;1.00;;;;;;5052163;28;47799;-80
2023/06/12 12:25:30;;;;;;;7.83;4.20;;;25.00;1.00;;;;;;5038771;28;45756;-80
2023/06/12 12:27:59;;;;;;;11.83;4.70;;;25.10;1.00;;;;;;5024865;28;46489;-83
2023/06/12 12:30:26;;;;;;;9.23;3.90;;;25.00;1.00;;;;;;5040765;28;46582;-80
2023/06/12 12:32:55;;;;;;;13.00;4.30;;;25.20;1.00;;;;;;5052481;28;49266;-81
2023/06/12 12:35:22;;;;;;;9.27;4.30;;;25.20;1.00;;;;;;5036076;28;46496;-78
2023/06/12 12:37:49;;;;;;;9.10;4.47;;;25.10;1.00;;;;;;5041262;28;46627;-80
2023/06/12 12:40:15;;;;;;;9.07;4.10;;;25.00;1.00;;;;;;5033586;28;46674;-80
2023/06/12 12:42:49;;;;;;;8.03;3.90;;;25.00;1.00;;;;;;5040805;28;46453;-78
2023/06/12 12:45:17;;;;;;;8.23;4.10;;;25.00;1.00;;;;;;5036305;28;46461;-82